Portada
METAR-TAF:

METAR-TAF

Aeroports :

Aeroport de Brussel·les

Brussel·les, Bèlgica

latitud: 50-54N, longitud: 004-32E, altitud: 55 m

Observació

L'informe es va fer fa 21 minuts, a les 21:20 UTC
Vent 4 kt del Nord
Temperatura 16°C
Humitat 55%
Pressió 1035 hPa
Visibilitat 10 km o més
sense núvols per sota de 1500 mi sense presència de cumulonimbus.

METAR: EBBR 262120Z 35004KT CAVOK 16/07 Q1035 NOSIG

Hora: 23:41 (21:41 UTC)

Pronòstic

L'informe es va fer fa 4 hores i 38 minuts, a les 17:03 UTC
Pronòstic vàlid del 26 a les 18 UTC al 27 a les 24 UTC
Vent 4 kt del Nord/Nord-Oest
Visibilitat 10 km o més
sense núvols per sota de 1500 mi sense presència de cumulonimbus.

TAF: EBBR 261703Z 2618/2724 34004KT CAVOK

Observacions i pronòstics meteorològics de més de 4000 aeroports (METAR i TAF).

Les estacions disponibles són els punts grocs i vermells al mapa.

Posi el ratolí al punt desitjat per veure el nom de l'estació.

Feu clic per veure les observacions i els pronòstics meteorològics.

Per canviar el mapa: feu clic els botons verds amb una creu de color negre per apropar; al botó verd amb un guió per allunyar la imatge; o en les fletxes verdes per a mapes adjacents.


METAR-TAF: